createdAt,value
2023-02-02T00:00:59.280Z,20.00
2023-02-02T00:03:58.772Z,19.40
2023-02-02T00:06:31.549Z,18.70
2023-02-02T00:09:04.883Z,18.52
2023-02-02T00:11:36.129Z,17.98
2023-02-02T00:14:06.957Z,19.17
2023-02-02T00:16:47.754Z,18.55
2023-02-02T00:19:51.580Z,19.45
2023-02-02T00:22:22.774Z,19.02
2023-02-02T00:24:53.903Z,18.58
2023-02-02T00:27:24.946Z,17.75
2023-02-02T00:29:55.762Z,18.85
2023-02-02T00:32:27.190Z,18.90
2023-02-02T00:34:58.281Z,17.88
2023-02-02T00:40:21.154Z,18.38
2023-02-02T00:42:51.938Z,20.30
2023-02-02T00:45:25.870Z,18.92
2023-02-02T00:48:00.317Z,20.38
2023-02-02T00:50:31.707Z,20.95
2023-02-02T00:53:02.461Z,20.65
2023-02-02T00:55:56.922Z,20.13
2023-02-02T01:01:02.538Z,19.42
2023-02-02T01:03:33.685Z,18.52
2023-02-02T01:06:05.058Z,20.75
2023-02-02T01:08:36.317Z,21.10
2023-02-02T01:11:07.963Z,21.48
2023-02-02T01:13:58.954Z,20.92
2023-02-02T01:16:49.723Z,20.40
2023-02-02T01:19:20.842Z,20.95
2023-02-02T01:21:58.182Z,20.75
2023-02-02T01:24:31.346Z,21.67
2023-02-02T01:27:05.968Z,19.25
2023-02-02T01:29:36.917Z,22.27
2023-02-02T01:32:08.812Z,22.67
2023-02-02T01:34:43.329Z,22.90
2023-02-02T01:37:14.969Z,21.73
2023-02-02T01:39:46.093Z,22.02
2023-02-02T01:42:21.821Z,22.98
2023-02-02T01:45:16.449Z,20.73
2023-02-02T01:51:05.908Z,19.05
2023-02-02T01:53:59.333Z,21.00
2023-02-02T01:56:37.367Z,21.35
2023-02-02T02:01:56.478Z,22.67
2023-02-02T02:04:29.112Z,21.60
2023-02-02T02:07:03.364Z,21.88
2023-02-02T02:09:35.838Z,24.77
2023-02-02T02:12:17.228Z,24.77
2023-02-02T02:15:09.920Z,24.55
2023-02-02T02:18:20.424Z,22.57
2023-02-02T02:21:19.539Z,24.67
2023-02-02T02:27:45.070Z,24.92
2023-02-02T02:30:36.283Z,24.58
2023-02-02T02:33:29.499Z,24.77
2023-02-02T02:36:13.769Z,24.67
2023-02-02T02:39:05.950Z,24.73
2023-02-02T02:41:46.812Z,25.10
2023-02-02T02:44:21.349Z,23.63
2023-02-02T02:46:53.094Z,27.05
2023-02-02T02:49:24.368Z,24.80
2023-02-02T02:51:56.908Z,28.02
2023-02-02T02:54:47.096Z,25.88
2023-02-02T02:57:32.950Z,24.95
2023-02-02T03:00:35.619Z,26.27
2023-02-02T03:03:36.632Z,26.05
2023-02-02T03:06:16.397Z,25.60
2023-02-02T03:09:02.833Z,26.20
2023-02-02T03:11:36.193Z,37.72
2023-02-02T03:14:27.983Z,47.75
2023-02-02T03:17:00.604Z,39.00
2023-02-02T03:19:31.811Z,31.90
2023-02-02T03:22:03.094Z,32.92
2023-02-02T03:24:54.243Z,33.33
2023-02-02T03:30:38.068Z,35.38
2023-02-02T03:33:50.593Z,34.72
2023-02-02T03:36:24.787Z,35.92
2023-02-02T03:38:56.720Z,35.97
2023-02-02T03:41:34.004Z,37.45
2023-02-02T03:44:05.222Z,34.72
2023-02-02T03:46:36.940Z,36.40
2023-02-02T03:49:08.199Z,35.65
2023-02-02T03:51:40.992Z,34.45
2023-02-02T03:54:11.955Z,34.50
2023-02-02T03:57:02.801Z,35.28
2023-02-02T03:59:33.893Z,35.55
2023-02-02T04:02:05.296Z,34.72
2023-02-02T04:07:21.633Z,34.67
2023-02-02T04:09:52.904Z,36.55
2023-02-02T04:12:24.262Z,37.13
2023-02-02T04:14:55.344Z,35.92
2023-02-02T04:17:29.492Z,35.40
2023-02-02T04:20:01.022Z,35.45
2023-02-02T04:22:32.071Z,36.10
2023-02-02T04:25:03.224Z,34.55
2023-02-02T04:27:35.513Z,35.42
2023-02-02T04:30:07.660Z,35.00
2023-02-02T04:32:38.680Z,32.88
2023-02-02T04:35:10.256Z,34.47
2023-02-02T04:38:06.365Z,35.33
2023-02-02T04:40:40.383Z,34.75
2023-02-02T04:46:01.715Z,33.45
2023-02-02T04:48:37.111Z,33.63
2023-02-02T04:53:56.735Z,34.88
2023-02-02T04:56:38.929Z,34.03
2023-02-02T04:59:26.871Z,34.78
2023-02-02T05:02:19.749Z,32.65
2023-02-02T05:04:50.817Z,34.47
2023-02-02T05:07:22.008Z,33.92
2023-02-02T05:09:53.097Z,33.78
2023-02-02T05:12:24.308Z,33.40
2023-02-02T05:15:10.372Z,34.33
2023-02-02T05:21:05.267Z,34.83
2023-02-02T05:23:36.617Z,34.28
2023-02-02T05:26:10.398Z,33.90
2023-02-02T05:31:33.864Z,32.75
2023-02-02T05:34:05.268Z,34.10
2023-02-02T05:36:36.459Z,32.75
2023-02-02T05:39:29.975Z,32.30
2023-02-02T05:44:57.439Z,31.95
2023-02-02T05:47:28.782Z,33.05
2023-02-02T05:49:59.947Z,34.70
2023-02-02T05:52:54.156Z,33.00
2023-02-02T05:55:48.816Z,33.53
2023-02-02T05:58:24.520Z,34.00
2023-02-02T06:00:57.056Z,33.65
2023-02-02T06:03:29.056Z,32.45
2023-02-02T06:06:01.571Z,34.05
2023-02-02T06:08:33.701Z,32.63
2023-02-02T06:11:15.637Z,33.53
2023-02-02T06:13:47.500Z,33.78
2023-02-02T06:16:21.285Z,32.67
2023-02-02T06:19:15.465Z,32.78
2023-02-02T06:21:50.931Z,33.13
2023-02-02T06:24:22.325Z,33.22
2023-02-02T06:26:54.906Z,34.50
2023-02-02T06:29:27.070Z,33.42
2023-02-02T06:31:58.606Z,32.05
2023-02-02T06:34:32.115Z,33.85
2023-02-02T06:37:04.078Z,34.97
2023-02-02T06:39:36.020Z,32.92
2023-02-02T06:42:20.730Z,33.38
2023-02-02T06:44:52.957Z,30.83
2023-02-02T06:50:46.847Z,32.65
2023-02-02T06:53:24.814Z,32.05
2023-02-02T06:56:03.687Z,31.73
2023-02-02T06:58:46.036Z,32.08
2023-02-02T07:01:17.584Z,32.58
2023-02-02T07:03:54.294Z,31.02
2023-02-02T07:06:30.836Z,30.92
2023-02-02T07:09:04.992Z,32.83
2023-02-02T07:11:40.662Z,31.88
2023-02-02T07:15:02.586Z,30.08
2023-02-02T07:17:35.269Z,30.52
2023-02-02T07:20:19.858Z,30.25
2023-02-02T07:23:37.890Z,33.33
2023-02-02T07:26:14.978Z,32.38
2023-02-02T07:29:21.363Z,32.90
2023-02-02T07:35:17.799Z,32.88
2023-02-02T07:37:55.347Z,31.63
2023-02-02T07:40:47.998Z,31.55
2023-02-02T07:46:29.407Z,31.90
2023-02-02T07:49:15.596Z,32.95
2023-02-02T07:52:02.751Z,32.05
2023-02-02T07:55:13.531Z,30.10
2023-02-02T07:58:00.485Z,34.42
2023-02-02T08:00:37.529Z,36.83
2023-02-02T08:03:08.926Z,31.55
2023-02-02T08:05:42.692Z,31.70
2023-02-02T08:08:29.820Z,29.75
2023-02-02T08:11:27.429Z,33.53
2023-02-02T08:14:20.310Z,33.88
2023-02-02T08:16:51.751Z,33.35
2023-02-02T08:19:48.533Z,33.33
2023-02-02T08:22:33.487Z,32.83
2023-02-02T08:25:04.447Z,32.30
2023-02-02T08:27:37.784Z,33.45
2023-02-02T08:30:58.691Z,33.67
2023-02-02T08:34:16.937Z,32.78
2023-02-02T08:36:48.038Z,30.90
2023-02-02T08:39:19.448Z,32.92
2023-02-02T08:41:58.210Z,30.90
2023-02-02T08:45:01.347Z,31.88
2023-02-02T08:48:10.871Z,30.73
2023-02-02T08:51:00.694Z,31.63
2023-02-02T08:54:10.491Z,33.38
2023-02-02T08:56:45.126Z,30.48
2023-02-02T08:59:17.873Z,32.45
2023-02-02T09:01:49.111Z,31.75
2023-02-02T09:04:39.899Z,30.48
2023-02-02T09:10:20.914Z,30.40
2023-02-02T09:12:52.895Z,31.05
2023-02-02T09:15:47.549Z,31.15
2023-02-02T09:18:18.951Z,30.48
2023-02-02T09:20:52.948Z,31.10
2023-02-02T09:23:24.085Z,31.35
2023-02-02T09:25:58.094Z,32.38
2023-02-02T09:31:05.239Z,30.80
2023-02-02T09:34:39.539Z,31.63
2023-02-02T09:37:11.414Z,29.43
2023-02-02T09:39:42.562Z,33.78
2023-02-02T09:42:24.770Z,31.52
2023-02-02T09:45:38.024Z,31.30
2023-02-02T09:51:35.212Z,31.27
2023-02-02T09:54:10.749Z,31.08
2023-02-02T09:56:45.758Z,29.83
2023-02-02T09:59:25.695Z,30.55
2023-02-02T10:02:11.610Z,31.25
2023-02-02T10:04:51.568Z,31.83
2023-02-02T10:07:32.793Z,30.40
2023-02-02T10:10:22.211Z,30.17
2023-02-02T10:13:24.477Z,30.25
2023-02-02T10:16:21.501Z,29.80
2023-02-02T10:19:02.574Z,29.90
2023-02-02T10:22:05.976Z,29.65
2023-02-02T10:24:37.729Z,30.38
2023-02-02T10:27:16.049Z,30.35
2023-02-02T10:29:56.838Z,30.48
2023-02-02T10:32:32.580Z,30.13
2023-02-02T10:35:24.674Z,30.38
2023-02-02T10:38:04.571Z,27.65
2023-02-02T10:41:17.939Z,29.15
2023-02-02T10:44:03.136Z,29.17
2023-02-02T10:46:41.178Z,28.92
2023-02-02T10:49:23.887Z,29.45
2023-02-02T10:51:59.768Z,28.80
2023-02-02T10:55:15.983Z,27.67
2023-02-02T10:58:20.459Z,27.13
2023-02-02T11:00:55.447Z,27.67
2023-02-02T11:03:33.474Z,27.73
2023-02-02T11:06:26.233Z,26.73
2023-02-02T11:09:12.361Z,26.25
2023-02-02T11:14:48.115Z,26.98
2023-02-02T11:17:28.233Z,27.73
2023-02-02T11:20:11.584Z,26.98
2023-02-02T11:22:43.620Z,26.93
2023-02-02T11:25:34.105Z,27.80
2023-02-02T11:28:24.420Z,27.38
2023-02-02T11:30:56.832Z,27.33
2023-02-02T11:33:42.480Z,26.67
2023-02-02T11:36:40.159Z,26.90
2023-02-02T11:39:30.943Z,26.50
2023-02-02T11:42:12.157Z,26.90
2023-02-02T11:44:54.866Z,25.27
2023-02-02T11:47:57.470Z,26.13
2023-02-02T11:53:51.287Z,25.13
2023-02-02T11:56:28.940Z,26.05
2023-02-02T11:59:03.502Z,25.67
2023-02-02T12:02:22.154Z,25.15
2023-02-02T12:05:13.162Z,25.27
2023-02-02T12:11:03.561Z,25.08
2023-02-02T12:14:09.517Z,25.40
2023-02-02T12:19:56.981Z,24.10
2023-02-02T12:23:04.904Z,24.63
2023-02-02T12:26:26.869Z,22.92
2023-02-02T12:29:18.305Z,25.25
2023-02-02T12:32:11.754Z,23.55
2023-02-02T12:41:44.714Z,24.10
2023-02-02T12:44:54.179Z,22.77
2023-02-02T12:51:02.974Z,23.25
2023-02-02T12:53:43.188Z,22.55
2023-02-02T12:56:55.333Z,22.58
2023-02-02T12:59:26.727Z,22.33
2023-02-02T13:02:18.204Z,23.67
2023-02-02T13:08:57.924Z,23.67
2023-02-02T13:11:51.760Z,22.83
2023-02-02T13:14:50.123Z,21.17
2023-02-02T13:17:34.424Z,21.90
2023-02-02T13:20:13.905Z,22.55
2023-02-02T13:22:47.929Z,22.58
2023-02-02T13:28:31.233Z,21.92
2023-02-02T13:34:19.273Z,21.27
2023-02-02T13:37:05.144Z,21.85
2023-02-02T13:39:50.113Z,20.60
2023-02-02T13:42:45.429Z,22.05
2023-02-02T13:46:06.929Z,20.92
2023-02-02T13:48:44.167Z,20.27
2023-02-02T13:51:54.585Z,20.92
2023-02-02T13:54:26.979Z,20.13
2023-02-02T13:57:01.660Z,19.52
2023-02-02T13:59:52.060Z,20.23
2023-02-02T14:02:48.209Z,20.30
2023-02-02T14:05:35.732Z,20.42
2023-02-02T14:08:29.455Z,18.85
2023-02-02T14:11:07.946Z,19.50
2023-02-02T14:14:09.521Z,20.17
2023-02-02T14:16:40.906Z,19.15
2023-02-02T14:19:44.566Z,20.35
2023-02-02T14:22:16.037Z,18.65
2023-02-02T14:25:41.560Z,19.45
2023-02-02T14:31:55.380Z,18.50
2023-02-02T14:34:44.719Z,19.13
2023-02-02T14:37:16.236Z,19.42
2023-02-02T14:40:04.453Z,17.98
2023-02-02T14:43:21.238Z,19.17
2023-02-02T14:46:15.287Z,18.67
2023-02-02T14:49:06.118Z,17.92
2023-02-02T14:52:02.266Z,18.38
2023-02-02T14:54:53.965Z,18.48
2023-02-02T14:57:47.016Z,19.02
2023-02-02T15:00:54.122Z,18.52
2023-02-02T15:03:47.716Z,18.58
2023-02-02T15:06:46.840Z,18.50
2023-02-02T15:09:30.794Z,18.45
2023-02-02T15:12:14.603Z,18.30
2023-02-02T15:15:19.597Z,18.40
2023-02-02T15:18:15.487Z,17.25
2023-02-02T15:20:54.411Z,17.73
2023-02-02T15:23:25.742Z,18.02
2023-02-02T15:26:11.700Z,17.20
2023-02-02T15:29:03.735Z,17.88
2023-02-02T15:31:51.613Z,16.45
2023-02-02T15:35:03.474Z,17.05
2023-02-02T15:37:57.778Z,16.75
2023-02-02T15:40:31.542Z,17.02
2023-02-02T15:43:07.840Z,16.88
2023-02-02T15:45:57.971Z,18.00
2023-02-02T15:48:31.806Z,16.63
2023-02-02T15:52:18.001Z,17.00
2023-02-02T15:54:55.203Z,16.55
2023-02-02T15:57:49.572Z,16.52
2023-02-02T16:00:32.492Z,16.33
2023-02-02T16:03:24.137Z,16.25
2023-02-02T16:05:58.678Z,16.35
2023-02-02T16:08:54.709Z,15.98
2023-02-02T16:11:26.660Z,16.38
2023-02-02T16:14:20.962Z,15.77
2023-02-02T16:16:53.530Z,16.05
2023-02-02T16:19:29.275Z,15.70
2023-02-02T16:22:12.606Z,16.40
2023-02-02T16:24:57.033Z,16.30
2023-02-02T16:27:34.090Z,15.85
2023-02-02T16:30:16.150Z,15.55
2023-02-02T16:32:48.324Z,16.27
2023-02-02T16:35:38.518Z,15.75
2023-02-02T16:38:37.436Z,15.05
2023-02-02T16:41:24.322Z,15.13
2023-02-02T16:44:48.171Z,14.38
2023-02-02T16:47:37.994Z,14.80
2023-02-02T16:50:29.999Z,15.43
2023-02-02T16:53:07.491Z,14.55
2023-02-02T16:55:50.348Z,14.98
2023-02-02T16:58:25.199Z,14.75
2023-02-02T17:01:55.020Z,15.20
2023-02-02T17:04:36.778Z,14.88
2023-02-02T17:07:29.263Z,14.13
2023-02-02T17:10:26.002Z,15.57
2023-02-02T17:12:57.328Z,14.18
2023-02-02T17:15:34.364Z,14.02
2023-02-02T17:18:29.001Z,14.32
2023-02-02T17:21:24.727Z,14.48
2023-02-02T17:26:49.737Z,14.48
2023-02-02T17:29:25.312Z,14.35
2023-02-02T17:31:56.402Z,14.73
2023-02-02T17:34:47.975Z,14.02
2023-02-02T17:37:20.222Z,13.17
2023-02-02T17:39:52.295Z,13.93
2023-02-02T17:42:33.290Z,14.23
2023-02-02T17:45:05.105Z,14.27
2023-02-02T17:47:39.030Z,14.38
2023-02-02T17:50:10.261Z,13.73
2023-02-02T17:52:41.669Z,14.05
2023-02-02T17:55:36.964Z,15.25
2023-02-02T17:58:08.393Z,14.52
2023-02-02T18:00:42.172Z,14.48
2023-02-02T18:03:35.220Z,14.48
2023-02-02T18:06:06.529Z,14.52
2023-02-02T18:08:37.692Z,14.65
2023-02-02T18:11:08.803Z,13.90
2023-02-02T18:13:39.993Z,14.23
2023-02-02T18:16:12.655Z,14.45
2023-02-02T18:18:43.642Z,14.68
2023-02-02T18:21:18.531Z,14.65
2023-02-02T18:23:54.006Z,14.60
2023-02-02T18:26:25.674Z,13.40
2023-02-02T18:28:57.015Z,14.27
2023-02-02T18:31:28.693Z,14.68
2023-02-02T18:33:59.995Z,13.93
2023-02-02T18:36:30.984Z,14.15
2023-02-02T18:39:22.002Z,14.40
2023-02-02T18:41:53.127Z,15.45
2023-02-02T18:44:25.539Z,13.65
2023-02-02T18:47:17.564Z,15.25
2023-02-02T18:49:49.211Z,14.18
2023-02-02T18:52:21.378Z,14.20
2023-02-02T18:54:52.922Z,14.38
2023-02-02T18:57:24.226Z,14.40
2023-02-02T18:59:56.407Z,14.43
2023-02-02T19:02:27.994Z,14.88
2023-02-02T19:05:16.938Z,14.75
2023-02-02T19:07:56.472Z,14.38
2023-02-02T19:10:29.664Z,13.80
2023-02-02T19:13:05.262Z,14.00
2023-02-02T19:15:39.248Z,15.10
2023-02-02T19:20:52.691Z,14.20
2023-02-02T19:23:25.664Z,15.55
2023-02-02T19:25:58.365Z,14.23
2023-02-02T19:28:33.974Z,13.93
2023-02-02T19:31:05.293Z,14.20
2023-02-02T19:33:47.359Z,15.55
2023-02-02T19:36:24.444Z,13.93
2023-02-02T19:39:03.171Z,14.98
2023-02-02T19:41:43.657Z,14.45
2023-02-02T19:44:24.010Z,14.85
2023-02-02T19:46:58.022Z,13.68
2023-02-02T19:52:02.378Z,13.30
2023-02-02T19:54:36.058Z,15.18
2023-02-02T19:57:22.738Z,14.38
2023-02-02T20:00:13.872Z,14.13
2023-02-02T20:02:58.737Z,14.27
2023-02-02T20:05:39.573Z,13.90
2023-02-02T20:08:26.651Z,15.32
2023-02-02T20:11:02.001Z,14.50
2023-02-02T20:13:45.650Z,15.30
2023-02-02T20:16:25.551Z,14.80
2023-02-02T20:18:58.933Z,14.57
2023-02-02T20:21:29.836Z,15.65
2023-02-02T20:24:00.786Z,15.20
2023-02-02T20:26:39.641Z,15.52
2023-02-02T20:29:42.227Z,14.25
2023-02-02T20:32:24.646Z,16.05
2023-02-02T20:35:43.010Z,15.35
2023-02-02T20:38:37.625Z,14.65
2023-02-02T20:43:59.677Z,14.82
2023-02-02T20:46:30.411Z,15.52
2023-02-02T20:49:01.147Z,15.13
2023-02-02T20:51:31.917Z,14.88
2023-02-02T20:54:02.913Z,15.25
2023-02-02T20:56:33.855Z,15.15
2023-02-02T20:59:07.208Z,17.55
2023-02-02T21:01:38.294Z,15.13
2023-02-02T21:04:09.328Z,15.23
2023-02-02T21:06:42.110Z,14.65
2023-02-02T21:09:13.036Z,15.98
2023-02-02T21:11:44.108Z,14.93
2023-02-02T21:14:14.969Z,15.25
2023-02-02T21:17:14.441Z,15.05
2023-02-02T21:19:46.283Z,14.70
2023-02-02T21:22:17.511Z,14.02
2023-02-02T21:24:50.629Z,15.07
2023-02-02T21:27:21.335Z,14.60
2023-02-02T21:29:52.302Z,14.52
2023-02-02T21:32:23.267Z,14.50
2023-02-02T21:34:54.112Z,14.50
2023-02-02T21:37:24.760Z,14.95
2023-02-02T21:40:01.205Z,15.73
2023-02-02T21:42:37.155Z,15.43
2023-02-02T21:45:23.077Z,15.80
2023-02-02T21:48:01.749Z,14.57
2023-02-02T21:50:36.982Z,14.68
2023-02-02T21:53:21.746Z,14.88
2023-02-02T21:56:01.264Z,14.85
2023-02-02T21:58:43.590Z,15.38
2023-02-02T22:01:25.590Z,14.80
2023-02-02T22:03:56.532Z,14.77
2023-02-02T22:06:32.496Z,15.02
2023-02-02T22:09:15.482Z,15.25
2023-02-02T22:11:49.031Z,16.05
2023-02-02T22:14:22.710Z,15.88
2023-02-02T22:16:58.556Z,16.52
2023-02-02T22:19:35.407Z,14.95
2023-02-02T22:22:19.612Z,15.90
2023-02-02T22:25:04.209Z,16.23
2023-02-02T22:27:58.920Z,16.83
2023-02-02T22:30:41.889Z,15.73
2023-02-02T22:33:14.653Z,14.85
2023-02-02T22:35:47.614Z,16.30
2023-02-02T22:38:26.400Z,15.48
2023-02-02T22:40:57.349Z,16.33
2023-02-02T22:43:28.090Z,15.98
2023-02-02T22:45:58.951Z,15.95
2023-02-02T22:48:29.837Z,15.13
2023-02-02T22:51:00.511Z,15.38
2023-02-02T22:53:31.492Z,16.27
2023-02-02T22:56:02.468Z,15.30
2023-02-02T22:58:33.372Z,15.45
2023-02-02T23:01:04.021Z,15.25
2023-02-02T23:03:34.859Z,16.15
2023-02-02T23:06:05.881Z,16.00
2023-02-02T23:08:36.751Z,16.02
2023-02-02T23:11:07.705Z,16.48
2023-02-02T23:13:38.561Z,15.25
2023-02-02T23:16:09.951Z,15.60
2023-02-02T23:18:40.982Z,17.40
2023-02-02T23:21:11.654Z,16.20
2023-02-02T23:23:42.518Z,15.45
2023-02-02T23:26:13.575Z,15.90
2023-02-02T23:29:03.937Z,16.50
2023-02-02T23:31:34.742Z,15.88
2023-02-02T23:34:05.660Z,15.50
2023-02-02T23:36:36.426Z,16.60
2023-02-02T23:39:07.062Z,14.57
2023-02-02T23:41:37.725Z,15.43
2023-02-02T23:44:08.529Z,16.25
2023-02-02T23:46:40.334Z,15.55
2023-02-02T23:49:11.455Z,15.15
2023-02-02T23:51:42.732Z,15.73
2023-02-02T23:54:15.632Z,15.13
2023-02-02T23:56:46.556Z,15.88
2023-02-02T23:59:17.495Z,14.68
